createdAt,value
2022-10-16T06:15:21.448Z,100.00
2022-10-16T06:25:21.502Z,100.00
2022-10-16T06:35:21.575Z,100.00
2022-10-16T06:45:21.548Z,100.00
2022-10-16T06:55:21.519Z,100.00
2022-10-16T07:05:21.605Z,100.00
2022-10-16T07:15:21.632Z,100.00
2022-10-16T07:25:21.686Z,100.00
2022-10-16T07:35:21.656Z,100.00
2022-10-16T07:45:21.566Z,100.00
2022-10-16T07:55:21.564Z,100.00
2022-10-16T08:05:21.600Z,100.00
2022-10-16T08:15:21.593Z,100.00
2022-10-16T08:25:21.670Z,100.00
2022-10-16T08:35:21.755Z,100.00
2022-10-16T08:45:22.050Z,100.00
2022-10-16T08:55:22.026Z,100.00
2022-10-16T09:05:22.100Z,100.00
2022-10-16T09:15:22.085Z,100.00
2022-10-16T09:25:22.028Z,97.84
2022-10-16T09:35:22.155Z,92.57
2022-10-16T09:45:22.097Z,91.25
2022-10-16T09:55:21.964Z,87.85
2022-10-16T10:05:22.056Z,87.93
2022-10-16T10:15:22.166Z,83.77
2022-10-16T10:25:22.233Z,83.66
2022-10-16T10:35:22.095Z,82.04
2022-10-16T10:45:21.976Z,78.40
2022-10-16T10:55:22.097Z,77.11
2022-10-16T11:05:22.105Z,72.87
2022-10-16T11:15:22.052Z,70.76
2022-10-16T11:25:22.149Z,72.28
2022-10-16T11:35:22.098Z,68.84
2022-10-16T11:45:21.986Z,67.23
2022-10-16T11:55:22.132Z,66.59
2022-10-16T12:05:22.109Z,66.74
2022-10-16T12:15:35.171Z,66.93
2022-10-16T12:25:22.277Z,66.89
2022-10-16T12:35:22.297Z,64.94
2022-10-16T12:45:22.214Z,66.53
2022-10-16T12:55:23.112Z,66.66
2022-10-16T13:05:22.126Z,65.13
2022-10-16T13:15:22.397Z,63.63
2022-10-16T13:25:22.330Z,62.80
2022-10-16T13:35:22.263Z,65.47
2022-10-16T13:45:22.248Z,64.63
2022-10-16T13:55:22.386Z,63.83
2022-10-16T14:05:22.364Z,64.14
2022-10-16T14:15:22.445Z,63.98
2022-10-16T14:25:22.199Z,61.96
2022-10-16T14:35:22.384Z,62.70
2022-10-16T14:45:22.249Z,62.47
2022-10-16T15:05:22.399Z,62.92
2022-10-16T15:15:22.429Z,64.08
2022-10-16T15:25:22.410Z,64.65
2022-10-16T15:35:22.480Z,65.82
2022-10-16T15:45:22.532Z,68.16
2022-10-16T15:55:22.518Z,73.46
2022-10-16T16:05:22.439Z,74.58
2022-10-16T16:15:22.529Z,81.09
2022-10-16T16:25:22.431Z,90.98
2022-10-16T16:35:22.454Z,94.96
2022-10-16T16:45:22.533Z,99.12
2022-10-16T16:55:22.521Z,100.00
2022-10-16T17:05:22.579Z,100.00
2022-10-16T17:15:22.461Z,100.00
2022-10-16T17:25:24.974Z,100.00
2022-10-16T17:35:22.621Z,100.00
2022-10-16T17:45:22.549Z,100.00
2022-10-16T17:55:26.401Z,100.00
2022-10-16T18:05:22.716Z,100.00
2022-10-16T18:15:22.622Z,100.00
2022-10-16T18:25:22.558Z,100.00
2022-10-16T18:35:22.672Z,100.00
2022-10-16T18:45:22.587Z,100.00
2022-10-16T18:55:22.594Z,100.00
2022-10-16T19:05:22.666Z,100.00
2022-10-16T19:15:22.694Z,100.00
